Главная страница
METAR-TAF:

METAR-TAF

Аэропорты :

Эребру, Швеция

широта: 59-14N, долгота: 015-03E, высота над уровнем моря: 57 м

Текущие метеонаблюдения

Эта сводка был подготовлена 19 минут назад, в 21:20 UTC
Ветер 5 Узел от западный-юго-западный
Температура 4°C
Влажность 70%
Давление 1007 hPa
Видимость 10 км и более

METAR: ESOE 072120Z AUTO 24005KT 9999 BKN086/// 04/M01 Q1007

Время: 23:39 (21:39 UTC)

Прогноз

Эта сводка был подготовлена 4 часа и 9 минут назад, в 17:30 UTC
Прогноз действительный с 07-го 18 UTC до 07-го 21 UTC
Ветер 2 Узел переменных направлений
Видимость 10 км и более
Нет облачности ниже 1500 м, и нет кучево-дождевой облачности

TAF: ESOE 071730Z 0718/0721 VRB02KT CAVOK

Метеонаблюдения и прогнозы для более 4000 аэропортов (сводки METAR и TAF).

Имеющиеся станции представлены на карте желтыми и красными точками.

Чтобы увидеть название станции, наведите на нее мышь.

Затем щелкните, чтобы увидеть метеонаблюдения и метеопрогнозы.

Управление картой: чтобы увеличить масштаб, щелкните зеленые кнопки с черным крестиком; чтобы уменьшить масштаб, щелкните зеленую кнопку с тире; для просмотра соседних карт щелкайте зеленые стрелки.


METAR-TAF: